Time;durP1;ratioP1;P1;durP2;ratioP2;P2;SDS_P1;SDS_P2;PMS_P1;PMS_P2;Temp;Humidity;BMP_temperature;BMP_pressure;BME280_temperature;BME280_humidity;BME280_pressure;Samples;Min_cycle;Max_cycle;Signal;HPM_P1;HPM_P2
2023/03/15 00:02:11;;;;;;;2.67;1.70;;;19.70;61.90;;;;;;5033630;28;20450;-92
2023/03/15 00:04:37;;;;;;;2.47;1.50;;;19.60;61.80;;;;;;5033819;28;20464;-95
2023/03/15 00:07:04;;;;;;;2.80;1.13;;;19.70;61.70;;;;;;5034830;28;20529;-93
2023/03/15 00:09:31;;;;;;;6.00;1.20;;;19.60;61.70;;;;;;5033722;28;20485;-95
2023/03/15 00:11:59;;;;;;;1.90;1.10;;;19.70;61.70;;;;;;5034020;28;20470;-95
2023/03/15 00:14:26;;;;;;;3.83;0.93;;;19.80;61.70;;;;;;5034261;28;20453;-94
2023/03/15 00:16:54;;;;;;;1.60;1.10;;;19.60;61.50;;;;;;5033534;28;20457;-93
2023/03/15 00:19:21;;;;;;;2.13;1.40;;;19.70;62.50;;;;;;5033225;28;20491;-93
2023/03/15 00:21:47;;;;;;;2.23;1.60;;;19.70;61.60;;;;;;5033609;28;20792;-93
2023/03/15 00:24:14;;;;;;;2.37;1.00;;;19.60;61.50;;;;;;5033602;28;20451;-93
2023/03/15 00:26:41;;;;;;;1.67;1.20;;;19.60;61.40;;;;;;5033120;28;21000;-92
2023/03/15 00:29:09;;;;;;;1.50;1.20;;;19.70;61.50;;;;;;5033676;28;20530;-93
2023/03/15 00:31:36;;;;;;;1.50;1.40;;;19.60;61.40;;;;;;5033457;28;20445;-93
2023/03/15 00:34:03;;;;;;;5.47;1.30;;;19.60;61.40;;;;;;5033845;28;20445;-95
2023/03/15 00:36:30;;;;;;;1.63;1.10;;;19.60;61.40;;;;;;5033653;28;20452;-95
2023/03/15 00:38:57;;;;;;;2.57;1.00;;;19.60;61.40;;;;;;5033468;28;20489;-92
2023/03/15 00:41:24;;;;;;;1.57;1.07;;;19.60;62.20;;;;;;5032957;28;20469;-92
2023/03/15 00:43:52;;;;;;;1.50;1.10;;;19.60;61.30;;;;;;5033385;28;20443;-94
2023/03/15 00:46:20;;;;;;;1.67;1.17;;;19.60;61.20;;;;;;5032814;28;20529;-91
2023/03/15 00:48:50;;;;;;;2.77;1.10;;;19.70;61.30;;;;;;5033092;28;20444;-91
2023/03/15 00:51:20;;;;;;;1.90;1.43;;;19.50;61.10;;;;;;5032744;28;20442;-92
2023/03/15 00:53:48;;;;;;;1.53;1.20;;;19.50;61.00;;;;;;5033061;28;20448;-94
2023/03/15 00:56:18;;;;;;;2.17;1.53;;;19.50;61.10;;;;;;5033548;28;20469;-91
2023/03/15 00:58:46;;;;;;;2.37;1.20;;;19.50;61.00;;;;;;5035551;28;20831;-94
2023/03/15 01:01:15;;;;;;;3.30;1.30;;;19.50;60.90;;;;;;5036417;28;20481;-93
2023/03/15 01:03:43;;;;;;;1.70;1.20;;;19.50;60.90;;;;;;5036151;28;20502;-93
2023/03/15 01:06:13;;;;;;;3.23;1.30;;;19.50;61.10;;;;;;5036262;28;20938;-93
2023/03/15 01:08:40;;;;;;;2.50;1.00;;;19.50;61.10;;;;;;5036482;28;20460;-93
2023/03/15 01:11:09;;;;;;;3.20;1.40;;;19.50;61.10;;;;;;5036213;28;20477;-93
2023/03/15 01:13:36;;;;;;;1.60;1.00;;;19.50;61.00;;;;;;5036324;28;20440;-91
2023/03/15 01:16:03;;;;;;;8.20;1.40;;;19.50;61.00;;;;;;5036236;28;20552;-94
2023/03/15 01:18:30;;;;;;;2.80;1.20;;;19.50;61.00;;;;;;5036243;28;20475;-93
2023/03/15 01:20:59;;;;;;;1.20;1.00;;;19.50;61.00;;;;;;5036177;28;20462;-91
2023/03/15 01:23:26;;;;;;;1.30;1.10;;;19.50;60.90;;;;;;5036093;28;20447;-93
2023/03/15 01:25:53;;;;;;;1.83;0.93;;;19.50;60.80;;;;;;5036520;28;20494;-94
2023/03/15 01:28:20;;;;;;;4.90;1.37;;;19.50;60.90;;;;;;5035802;28;20449;-93
2023/03/15 01:30:50;;;;;;;1.53;1.00;;;19.60;60.90;;;;;;5036056;28;20442;-93
2023/03/15 01:33:17;;;;;;;1.10;0.87;;;19.60;60.90;;;;;;5035483;28;20474;-93
2023/03/15 01:35:44;;;;;;;1.70;1.10;;;19.40;60.80;;;;;;5035621;28;20940;-90
2023/03/15 01:38:12;;;;;;;1.30;1.20;;;19.40;60.80;;;;;;5036170;28;20449;-93
2023/03/15 01:40:44;;;;;;;1.30;1.00;;;19.40;60.80;;;;;;5035563;28;20800;-93
2023/03/15 01:43:19;;;;;;;1.60;1.07;;;19.40;60.70;;;;;;5035522;28;20457;-93
2023/03/15 01:46:14;;;;;;;1.20;1.00;;;19.40;60.70;;;;;;5035716;28;20440;-94
2023/03/15 01:48:43;;;;;;;1.80;1.17;;;19.40;60.70;;;;;;5035496;28;20453;-94
2023/03/15 01:51:16;;;;;;;1.50;1.00;;;19.50;60.80;;;;;;5035504;28;20830;-93
2023/03/15 01:53:48;;;;;;;1.50;1.00;;;19.40;60.60;;;;;;5035347;28;20430;-92
2023/03/15 01:56:15;;;;;;;1.70;1.23;;;19.40;60.80;;;;;;5035370;28;20469;-92
2023/03/15 01:58:45;;;;;;;1.30;1.00;;;19.50;60.80;;;;;;5035971;28;20474;-94
2023/03/15 02:01:13;;;;;;;1.60;1.20;;;19.50;60.70;;;;;;5038483;28;20453;-92
2023/03/15 02:03:45;;;;;;;1.93;1.20;;;19.40;60.70;;;;;;5059800;28;20446;-91
2023/03/15 02:06:16;;;;;;;1.80;1.20;;;19.40;60.60;;;;;;5059978;28;20422;-90
2023/03/15 02:08:49;;;;;;;1.80;1.50;;;19.40;60.60;;;;;;5056985;28;20439;-91
2023/03/15 02:11:19;;;;;;;1.40;1.30;;;19.40;60.60;;;;;;5035530;28;20425;-93
2023/03/15 02:13:47;;;;;;;1.60;1.23;;;19.60;60.90;;;;;;5035900;28;20442;-90
2023/03/15 02:16:14;;;;;;;3.40;1.77;;;19.40;60.60;;;;;;5036015;28;20439;-94
2023/03/15 02:18:41;;;;;;;1.40;1.00;;;19.40;60.60;;;;;;5039004;28;20492;-95
2023/03/15 02:21:21;;;;;;;1.80;1.20;;;19.40;60.60;;;;;;5038507;28;20454;-92
2023/03/15 02:23:56;;;;;;;1.70;1.07;;;19.40;60.60;;;;;;5039981;28;21020;-95
2023/03/15 02:26:29;;;;;;;3.10;1.10;;;19.40;60.60;;;;;;5039131;28;20476;-94
2023/03/15 02:28:58;;;;;;;2.33;1.70;;;19.40;60.60;;;;;;5038729;28;20443;-93
2023/03/15 02:31:25;;;;;;;1.50;1.23;;;19.30;60.50;;;;;;5037464;28;20436;-93
2023/03/15 02:33:54;;;;;;;1.83;1.00;;;19.30;60.50;;;;;;5037571;28;20477;-95
2023/03/15 02:36:23;;;;;;;2.03;1.40;;;19.30;60.50;;;;;;5037712;28;20482;-93
2023/03/15 02:38:51;;;;;;;1.30;1.10;;;19.30;60.50;;;;;;5037823;28;20564;-94
2023/03/15 02:41:21;;;;;;;1.20;1.00;;;19.30;60.40;;;;;;5036394;28;20465;-95
2023/03/15 02:43:52;;;;;;;1.23;1.07;;;19.50;60.60;;;;;;5037018;28;20457;-94
2023/03/15 02:46:21;;;;;;;1.30;1.10;;;19.30;60.40;;;;;;5037288;28;20464;-93
2023/03/15 02:48:52;;;;;;;1.47;1.37;;;19.30;60.40;;;;;;5036435;28;20447;-94
2023/03/15 02:51:21;;;;;;;1.83;1.20;;;19.30;60.40;;;;;;5036610;28;20455;-93
2023/03/15 02:53:48;;;;;;;1.50;1.33;;;19.30;60.40;;;;;;5035844;28;20443;-94
2023/03/15 02:56:16;;;;;;;1.70;1.10;;;19.30;60.40;;;;;;5035096;28;20459;-95
2023/03/15 02:58:44;;;;;;;1.20;1.00;;;19.10;60.20;;;;;;5034847;28;20453;-92
2023/03/15 03:01:12;;;;;;;1.60;1.10;;;19.40;60.50;;;;;;5035227;28;20494;-95
2023/03/15 03:03:40;;;;;;;3.23;1.33;;;19.30;60.40;;;;;;5035124;28;20447;-94
2023/03/15 03:06:07;;;;;;;1.30;1.07;;;19.30;60.40;;;;;;5034914;28;20438;-94
2023/03/15 03:08:34;;;;;;;1.30;1.00;;;19.40;60.60;;;;;;5034553;28;20439;-94
2023/03/15 03:11:01;;;;;;;1.50;1.40;;;19.30;60.40;;;;;;5034769;28;20435;-93
2023/03/15 03:13:28;;;;;;;2.00;1.10;;;19.30;60.40;;;;;;5035472;28;20446;-95
2023/03/15 03:15:58;;;;;;;1.63;1.00;;;19.20;60.20;;;;;;5035084;28;20438;-93
2023/03/15 03:18:25;;;;;;;1.67;1.40;;;19.20;60.20;;;;;;5035362;28;20495;-93
2023/03/15 03:20:56;;;;;;;1.60;1.30;;;19.20;60.20;;;;;;5034980;28;20539;-92
2023/03/15 03:23:24;;;;;;;1.40;1.20;;;19.20;60.20;;;;;;5035482;28;20422;-95
2023/03/15 03:25:52;;;;;;;2.67;1.10;;;19.40;60.40;;;;;;5035621;28;20473;-95
2023/03/15 03:28:19;;;;;;;1.50;1.00;;;19.20;60.20;;;;;;5035901;28;20934;-95
2023/03/15 03:30:46;;;;;;;1.67;1.03;;;19.20;61.10;;;;;;5038828;28;20533;-94
2023/03/15 03:33:13;;;;;;;3.13;1.30;;;19.30;60.40;;;;;;5058081;28;20529;-93
2023/03/15 03:35:41;;;;;;;1.80;1.27;;;19.30;60.30;;;;;;5054367;28;20441;-93
2023/03/15 03:38:11;;;;;;;1.40;1.10;;;19.20;60.10;;;;;;5033737;28;20506;-96
2023/03/15 03:40:38;;;;;;;1.63;1.07;;;19.20;60.20;;;;;;5033635;28;20583;-94
2023/03/15 03:43:05;;;;;;;1.30;1.20;;;19.20;60.20;;;;;;5034012;28;20823;-93
2023/03/15 03:45:32;;;;;;;1.67;1.20;;;19.20;60.10;;;;;;5034728;28;20438;-95
2023/03/15 03:47:58;;;;;;;1.63;1.00;;;19.20;60.30;;;;;;5034163;28;20475;-92
2023/03/15 03:50:25;;;;;;;2.33;1.20;;;19.20;60.20;;;;;;5033417;28;20442;-92
2023/03/15 03:52:53;;;;;;;1.20;0.90;;;19.20;60.20;;;;;;5033999;28;20446;-95
2023/03/15 03:55:24;;;;;;;1.53;1.20;;;19.20;60.20;;;;;;5034054;28;20885;-95
2023/03/15 03:57:52;;;;;;;1.60;1.27;;;19.40;60.40;;;;;;5034734;28;20446;-94
2023/03/15 04:00:20;;;;;;;1.60;1.07;;;19.20;60.10;;;;;;5033840;28;20491;-95
2023/03/15 04:02:47;;;;;;;1.73;1.40;;;19.20;60.20;;;;;;5033574;28;20451;-93
2023/03/15 04:05:14;;;;;;;2.23;1.10;;;19.20;60.20;;;;;;5033482;28;20441;-95
2023/03/15 04:07:41;;;;;;;1.50;1.00;;;19.20;60.10;;;;;;5034671;28;20450;-92
2023/03/15 04:10:13;;;;;;;1.20;0.90;;;19.20;60.20;;;;;;5034218;28;20464;-92
2023/03/15 04:12:41;;;;;;;1.10;0.90;;;19.20;60.30;;;;;;5034611;28;20441;-94
2023/03/15 04:15:10;;;;;;;1.57;1.00;;;19.20;60.20;;;;;;5033996;28;20437;-92
2023/03/15 04:17:37;;;;;;;1.53;1.00;;;19.20;60.20;;;;;;5033541;28;20855;-94
2023/03/15 04:20:06;;;;;;;1.50;1.10;;;19.20;61.00;;;;;;5033166;28;20479;-95
2023/03/15 04:22:34;;;;;;;1.03;0.73;;;19.20;60.10;;;;;;5034121;28;20926;-96
2023/03/15 04:25:01;;;;;;;1.20;0.93;;;19.10;60.00;;;;;;5034117;28;20507;-95
2023/03/15 04:27:28;;;;;;;1.40;0.93;;;19.10;60.10;;;;;;5033819;28;20480;-95
2023/03/15 04:29:57;;;;;;;1.83;0.90;;;19.20;60.20;;;;;;5033087;28;20815;-92
2023/03/15 04:32:23;;;;;;;2.33;1.20;;;19.20;60.20;;;;;;5034940;28;20474;-95
2023/03/15 04:34:51;;;;;;;1.20;0.90;;;19.20;60.10;;;;;;5036934;28;20448;-95
2023/03/15 04:37:18;;;;;;;1.17;1.00;;;19.30;60.30;;;;;;5037269;28;20442;-95
2023/03/15 04:39:44;;;;;;;1.20;1.03;;;19.10;60.00;;;;;;5038129;28;20493;-92
2023/03/15 04:42:11;;;;;;;1.20;1.03;;;19.10;60.90;;;;;;5036839;28;21023;-92
2023/03/15 04:44:38;;;;;;;1.60;1.00;;;19.10;60.10;;;;;;5036834;28;20884;-93
2023/03/15 04:47:06;;;;;;;1.33;1.07;;;19.10;60.00;;;;;;5037413;28;20445;-93
2023/03/15 04:49:33;;;;;;;1.20;1.00;;;19.10;60.00;;;;;;5037939;28;20453;-92
2023/03/15 04:52:00;;;;;;;1.07;0.80;;;19.10;60.00;;;;;;5037055;28;20445;-92
2023/03/15 04:54:27;;;;;;;1.30;1.00;;;19.20;60.10;;;;;;5037040;28;20447;-94
2023/03/15 04:56:54;;;;;;;1.83;0.90;;;19.10;60.00;;;;;;5037700;28;20472;-92
2023/03/15 04:59:21;;;;;;;1.20;0.90;;;19.10;60.00;;;;;;5036894;28;20525;-95
2023/03/15 05:01:48;;;;;;;1.37;0.90;;;19.10;60.00;;;;;;5037381;28;20453;-95
2023/03/15 05:04:18;;;;;;;1.20;1.00;;;19.20;60.00;;;;;;5037096;28;20450;-93
2023/03/15 05:06:45;;;;;;;1.10;0.80;;;19.10;60.00;;;;;;5037533;28;20491;-94
2023/03/15 05:09:17;;;;;;;1.20;1.03;;;19.10;59.90;;;;;;5036879;28;20478;-95
2023/03/15 05:11:44;;;;;;;1.40;1.10;;;19.10;60.00;;;;;;5019473;28;20456;-92
2023/03/15 05:14:11;;;;;;;1.97;1.00;;;19.10;60.00;;;;;;5037213;28;20458;-94
2023/03/15 05:16:38;;;;;;;1.70;1.00;;;19.10;60.00;;;;;;5037242;28;20795;-96
2023/03/15 05:19:05;;;;;;;1.00;0.73;;;19.20;60.00;;;;;;5036823;28;20476;-92
2023/03/15 05:21:33;;;;;;;1.20;1.10;;;19.10;59.90;;;;;;5036666;28;20580;-95
2023/03/15 05:24:00;;;;;;;1.40;1.00;;;19.10;60.00;;;;;;5036764;28;20440;-94
2023/03/15 05:26:27;;;;;;;1.03;0.90;;;19.10;60.00;;;;;;5036700;28;20469;-93
2023/03/15 05:28:53;;;;;;;1.27;0.90;;;19.10;60.00;;;;;;5036581;28;20550;-95
2023/03/15 05:31:21;;;;;;;1.10;1.00;;;19.10;60.00;;;;;;5036537;28;20448;-95
2023/03/15 05:33:47;;;;;;;1.43;0.90;;;19.10;60.00;;;;;;5036362;28;20631;-93
2023/03/15 05:36:15;;;;;;;1.23;1.00;;;19.10;59.90;;;;;;5036706;28;20458;-92
2023/03/15 05:38:43;;;;;;;1.10;0.83;;;19.10;59.90;;;;;;5038569;28;20464;-92
2023/03/15 05:41:10;;;;;;;1.10;0.90;;;19.10;60.00;;;;;;5037438;28;20491;-91
2023/03/15 05:43:36;;;;;;;1.33;1.13;;;19.10;59.90;;;;;;5035491;28;20438;-94
2023/03/15 05:46:03;;;;;;;1.27;1.10;;;19.10;59.90;;;;;;5036969;28;20441;-95
2023/03/15 05:48:31;;;;;;;2.30;1.07;;;19.10;60.00;;;;;;5037017;28;20962;-95
2023/03/15 05:50:58;;;;;;;1.10;0.83;;;19.10;60.00;;;;;;5036387;28;20945;-92
2023/03/15 05:53:25;;;;;;;1.57;1.10;;;19.10;59.90;;;;;;5036189;28;20525;-93
2023/03/15 05:55:53;;;;;;;1.93;0.93;;;19.10;60.00;;;;;;5036698;28;20474;-92
2023/03/15 05:58:20;;;;;;;1.10;0.90;;;19.20;60.00;;;;;;5037997;28;20536;-94
2023/03/15 06:00:48;;;;;;;1.10;1.00;;;19.10;60.00;;;;;;5037035;28;20530;-93
2023/03/15 06:03:15;;;;;;;1.40;1.07;;;19.10;59.90;;;;;;5038096;28;20508;-94
2023/03/15 06:05:42;;;;;;;2.07;1.07;;;19.00;59.90;;;;;;5036835;28;20452;-95
2023/03/15 06:08:09;;;;;;;1.33;1.20;;;19.00;59.80;;;;;;5037143;28;20442;-93
2023/03/15 06:10:36;;;;;;;1.20;0.90;;;19.00;60.60;;;;;;5038874;28;20500;-94
2023/03/15 06:13:04;;;;;;;1.20;1.00;;;19.00;59.80;;;;;;5057241;28;20445;-90
2023/03/15 06:15:31;;;;;;;1.20;0.97;;;19.00;59.90;;;;;;5057709;28;20430;-91
2023/03/15 06:17:58;;;;;;;1.50;1.00;;;19.00;59.90;;;;;;5035361;28;20443;-92
2023/03/15 06:20:25;;;;;;;1.20;1.07;;;19.00;59.90;;;;;;5035082;28;20904;-91
2023/03/15 06:22:52;;;;;;;1.00;0.73;;;19.00;59.90;;;;;;5035024;28;20885;-94
2023/03/15 06:25:19;;;;;;;1.17;0.90;;;19.10;59.90;;;;;;5035038;28;20446;-90
2023/03/15 06:27:46;;;;;;;1.00;0.80;;;19.00;59.90;;;;;;5034846;28;20473;-92
2023/03/15 06:30:15;;;;;;;1.40;0.97;;;19.00;59.90;;;;;;5034832;28;20480;-91
2023/03/15 06:32:42;;;;;;;1.13;0.90;;;19.00;59.90;;;;;;5034661;28;20865;-92
2023/03/15 06:35:09;;;;;;;1.47;0.90;;;19.00;59.80;;;;;;5034944;28;20862;-91
2023/03/15 06:37:36;;;;;;;1.90;1.20;;;19.00;59.90;;;;;;5026442;28;20437;-92
2023/03/15 06:40:06;;;;;;;1.23;0.80;;;19.00;59.80;;;;;;5058369;28;20457;-90
2023/03/15 06:42:33;;;;;;;1.17;1.07;;;19.00;59.90;;;;;;5059256;28;20488;-91
2023/03/15 06:45:00;;;;;;;1.10;0.90;;;19.00;59.80;;;;;;5048679;28;20446;-93
2023/03/15 06:47:28;;;;;;;1.77;1.00;;;19.00;59.80;;;;;;5039283;28;20986;-95
2023/03/15 06:49:55;;;;;;;1.20;1.00;;;19.00;59.80;;;;;;5018619;28;20458;-95
2023/03/15 06:52:26;;;;;;;1.40;0.90;;;19.00;59.80;;;;;;5026331;28;20847;-91
2023/03/15 06:54:53;;;;;;;1.40;1.00;;;19.00;59.80;;;;;;5025851;28;20431;-91
2023/03/15 06:57:20;;;;;;;1.00;0.80;;;19.10;59.90;;;;;;5030581;28;20454;-91
2023/03/15 06:59:46;;;;;;;1.23;0.80;;;19.00;59.70;;;;;;5022657;28;20449;-91
2023/03/15 07:02:15;;;;;;;1.40;1.00;;;19.00;59.70;;;;;;5027707;28;20499;-92
2023/03/15 07:08:06;;;;;;;2.40;0.87;;;19.00;59.80;;;;;;5022934;28;20414;-90
2023/03/15 07:10:34;;;;;;;1.40;1.00;;;19.00;59.90;;;;;;5028167;28;21016;-91
2023/03/15 07:13:01;;;;;;;1.37;1.10;;;19.10;59.80;;;;;;5018130;28;20493;-91
2023/03/15 07:15:35;;;;;;;2.30;1.27;;;19.00;59.70;;;;;;5020708;28;20453;-92
2023/03/15 07:18:01;;;;;;;1.67;1.00;;;19.00;59.80;;;;;;5022450;28;20439;-92
2023/03/15 07:20:28;;;;;;;1.40;0.83;;;19.10;59.80;;;;;;5015272;28;20558;-92
2023/03/15 07:22:56;;;;;;;1.80;1.10;;;19.10;59.90;;;;;;5015205;28;20447;-92
2023/03/15 07:25:24;;;;;;;2.00;1.00;;;19.10;59.90;;;;;;5014718;28;20451;-92
2023/03/15 07:27:52;;;;;;;1.60;0.97;;;19.20;60.00;;;;;;5014732;28;20860;-92
2023/03/15 07:30:19;;;;;;;1.17;0.80;;;19.10;59.90;;;;;;5014336;28;20455;-92
2023/03/15 07:32:46;;;;;;;1.20;1.00;;;19.10;59.80;;;;;;5014267;28;20485;-92
2023/03/15 07:35:15;;;;;;;1.17;0.80;;;19.10;59.80;;;;;;5014065;28;20457;-93
2023/03/15 07:37:42;;;;;;;1.37;1.10;;;19.20;59.70;;;;;;5014578;28;20462;-94
2023/03/15 07:40:11;;;;;;;1.10;0.80;;;19.20;59.60;;;;;;5014836;28;20481;-93
2023/03/15 07:42:40;;;;;;;1.10;1.00;;;19.20;59.80;;;;;;5014581;28;20447;-92
2023/03/15 07:45:08;;;;;;;1.20;0.90;;;19.20;59.70;;;;;;5014315;28;20440;-92
2023/03/15 07:47:36;;;;;;;1.60;1.00;;;19.20;59.60;;;;;;5015274;28;20451;-92
2023/03/15 07:50:03;;;;;;;1.40;1.00;;;19.20;59.70;;;;;;5014537;28;20561;-93
2023/03/15 07:52:30;;;;;;;5.90;1.30;;;19.30;59.90;;;;;;5028692;28;20441;-89
2023/03/15 07:54:56;;;;;;;6.60;1.17;;;19.30;60.10;;;;;;5035425;28;20448;-96
2023/03/15 07:57:23;;;;;;;3.20;1.00;;;19.30;60.20;;;;;;5035087;28;20466;-92
2023/03/15 07:59:52;;;;;;;1.40;0.83;;;19.30;60.10;;;;;;5034533;28;20477;-94
2023/03/15 08:02:20;;;;;;;1.90;1.17;;;19.40;60.30;;;;;;5033829;28;20495;-96
2023/03/15 08:04:49;;;;;;;1.77;0.90;;;19.40;60.20;;;;;;5041237;28;20830;-95
2023/03/15 08:07:17;;;;;;;3.10;1.03;;;19.40;60.40;;;;;;5044799;28;20442;-95
2023/03/15 08:09:45;;;;;;;3.50;1.17;;;19.40;60.20;;;;;;5042035;28;20446;-95
2023/03/15 08:15:11;;;;;;;1.37;0.90;;;19.40;60.00;;;;;;5055075;28;20445;-96
2023/03/15 08:17:39;;;;;;;2.00;1.20;;;19.40;60.00;;;;;;5043018;28;20511;-96
2023/03/15 08:20:10;;;;;;;3.03;1.10;;;19.40;60.20;;;;;;5046080;28;20452;-96
2023/03/15 08:22:43;;;;;;;2.37;1.20;;;19.40;60.00;;;;;;5048201;28;20560;-96
2023/03/15 08:25:17;;;;;;;2.23;1.10;;;19.40;60.00;;;;;;5050775;28;20470;-96
2023/03/15 08:27:45;;;;;;;1.77;1.20;;;19.50;60.00;;;;;;5049804;28;20473;-95
2023/03/15 08:30:16;;;;;;;1.67;1.30;;;19.50;59.90;;;;;;5048624;28;20470;-96
2023/03/15 08:36:25;;;;;;;4.13;1.70;;;19.50;60.00;;;;;;5038774;28;20550;-96
2023/03/15 08:38:52;;;;;;;3.47;1.90;;;19.40;60.00;;;;;;5047568;28;20444;-95
2023/03/15 08:41:19;;;;;;;1.80;1.60;;;19.40;60.10;;;;;;5036715;28;21009;-95
2023/03/15 08:43:46;;;;;;;6.43;3.90;;;19.40;60.40;;;;;;5045831;28;20449;-95
2023/03/15 08:46:16;;;;;;;3.43;2.60;;;19.40;60.00;;;;;;5042592;28;20486;-94
2023/03/15 08:48:45;;;;;;;3.13;2.40;;;19.40;60.00;;;;;;5039588;28;20445;-93
2023/03/15 08:51:12;;;;;;;4.63;2.10;;;19.60;60.10;;;;;;5021779;28;20491;-92
2023/03/15 08:53:39;;;;;;;3.90;2.20;;;19.40;60.00;;;;;;5037363;28;20933;-92
2023/03/15 08:56:08;;;;;;;3.80;2.10;;;19.50;60.20;;;;;;5027447;28;20530;-88
2023/03/15 08:58:38;;;;;;;4.60;2.20;;;19.50;60.30;;;;;;5023406;28;20873;-93
2023/03/15 09:01:05;;;;;;;3.10;1.57;;;19.70;60.30;;;;;;5017491;28;20621;-91
2023/03/15 09:03:33;;;;;;;7.20;3.37;;;19.50;59.90;;;;;;5020177;28;20933;-91
2023/03/15 09:06:00;;;;;;;6.90;2.00;;;19.60;60.00;;;;;;5036981;28;20447;-91
2023/03/15 09:08:27;;;;;;;3.40;1.97;;;19.60;60.00;;;;;;5036127;28;20455;-91
2023/03/15 09:10:55;;;;;;;7.07;2.23;;;19.50;60.00;;;;;;5036348;28;20457;-93
2023/03/15 09:13:22;;;;;;;3.43;2.40;;;19.50;60.00;;;;;;5036925;28;20457;-90
2023/03/15 09:15:50;;;;;;;4.80;3.70;;;19.50;60.00;;;;;;5037806;28;20808;-90
2023/03/15 09:18:17;;;;;;;14.77;4.23;;;19.50;59.00;;;;;;5035402;28;20943;-89
2023/03/15 09:20:45;;;;;;;7.17;3.70;;;19.50;58.50;;;;;;5036312;28;20474;-89
2023/03/15 09:23:13;;;;;;;5.00;2.90;;;19.50;58.60;;;;;;5036066;28;20449;-89
2023/03/15 09:25:40;;;;;;;2.50;2.30;;;19.60;58.80;;;;;;5036083;28;20470;-89
2023/03/15 09:28:09;;;;;;;2.43;2.10;;;19.60;59.10;;;;;;5035991;28;20446;-89
2023/03/15 09:30:38;;;;;;;3.27;2.57;;;19.60;59.30;;;;;;5036189;28;20932;-89
2023/03/15 09:33:06;;;;;;;5.43;2.10;;;19.60;59.40;;;;;;5036082;28;20465;-89
2023/03/15 09:35:33;;;;;;;7.23;2.27;;;19.50;59.50;;;;;;5035916;28;20473;-89
2023/03/15 09:38:02;;;;;;;7.83;2.30;;;19.60;59.40;;;;;;5035828;28;20529;-89
2023/03/15 09:40:32;;;;;;;8.90;2.13;;;19.60;59.60;;;;;;5035734;28;20449;-89
2023/03/15 09:43:09;;;;;;;2.93;2.43;;;19.60;59.70;;;;;;5036113;28;20493;-89
2023/03/15 09:45:50;;;;;;;4.07;2.17;;;19.70;59.90;;;;;;5035578;28;20449;-89
2023/03/15 09:48:26;;;;;;;11.23;2.43;;;19.70;60.00;;;;;;5024170;28;20453;-92
2023/03/15 09:50:56;;;;;;;4.80;2.50;;;19.80;59.80;;;;;;5041247;28;20426;-89
2023/03/15 09:53:31;;;;;;;3.30;2.17;;;19.90;59.90;;;;;;5017014;28;20494;-92
2023/03/15 09:56:00;;;;;;;10.47;2.13;;;19.90;59.60;;;;;;5035374;28;20470;-90
2023/03/15 09:58:31;;;;;;;5.93;3.60;;;20.00;59.60;;;;;;5033477;28;20467;-89
2023/03/15 10:01:02;;;;;;;2.73;2.20;;;19.90;59.60;;;;;;5037433;28;20441;-89
2023/03/15 10:03:35;;;;;;;7.77;2.10;;;20.00;59.70;;;;;;5045490;28;20871;-89
2023/03/15 10:06:11;;;;;;;5.60;2.10;;;19.90;59.70;;;;;;5050923;28;20441;-89
2023/03/15 10:08:39;;;;;;;3.23;2.23;;;20.00;59.90;;;;;;5046968;23;20901;-91
2023/03/15 10:11:14;;;;;;;4.60;1.90;;;20.00;59.90;;;;;;5008118;28;20463;-89
2023/03/15 10:13:57;;;;;;;4.23;2.50;;;20.00;59.90;;;;;;5003468;28;20481;-90
2023/03/15 10:16:37;;;;;;;7.63;2.40;;;20.10;60.80;;;;;;5001932;28;20438;-91
2023/03/15 10:19:13;;;;;;;20.43;2.70;;;20.20;59.90;;;;;;5018299;28;20449;-91
2023/03/15 10:21:50;;;;;;;3.40;2.27;;;20.10;60.00;;;;;;5004200;28;20475;-91
2023/03/15 10:24:23;;;;;;;16.00;2.70;;;20.20;60.30;;;;;;4997447;28;20814;-92
2023/03/15 10:26:53;;;;;;;3.13;1.80;;;20.20;60.40;;;;;;5013732;28;20797;-92
2023/03/15 10:29:24;;;;;;;3.50;2.33;;;20.30;60.60;;;;;;5019095;28;20452;-91
2023/03/15 10:31:52;;;;;;;2.43;2.23;;;20.40;60.60;;;;;;5019365;28;20938;-92
2023/03/15 10:34:20;;;;;;;9.20;2.50;;;20.50;60.60;;;;;;5018359;28;20981;-92
2023/03/15 10:36:52;;;;;;;5.10;2.37;;;20.30;60.20;;;;;;5016262;28;20447;-91
2023/03/15 10:39:22;;;;;;;4.43;2.20;;;20.60;60.40;;;;;;5017204;28;20469;-91
2023/03/15 10:41:50;;;;;;;3.90;2.10;;;20.60;60.20;;;;;;5018172;28;20966;-91
2023/03/15 10:44:21;;;;;;;5.00;2.57;;;20.50;60.20;;;;;;5015694;28;20471;-91
2023/03/15 10:47:01;;;;;;;4.40;2.10;;;20.50;60.20;;;;;;5016125;28;20478;-91
2023/03/15 10:49:36;;;;;;;2.97;1.97;;;20.30;60.30;;;;;;5015332;28;20473;-91
2023/03/15 10:52:04;;;;;;;3.60;2.00;;;20.50;60.50;;;;;;5015186;28;20434;-91
2023/03/15 10:54:34;;;;;;;4.70;2.50;;;20.40;60.40;;;;;;5015403;28;20446;-92
2023/03/15 10:57:04;;;;;;;5.00;2.10;;;20.40;60.50;;;;;;5015605;28;20463;-91
2023/03/15 10:59:33;;;;;;;1.93;1.60;;;20.30;60.40;;;;;;5015117;28;20543;-91
2023/03/15 11:02:21;;;;;;;5.43;2.13;;;20.40;60.50;;;;;;5015383;28;20488;-91
2023/03/15 11:04:50;;;;;;;4.23;2.10;;;20.50;60.60;;;;;;5016337;28;20862;-91
2023/03/15 11:07:17;;;;;;;3.17;2.20;;;20.50;60.40;;;;;;5016072;28;20443;-91
2023/03/15 11:09:53;;;;;;;2.23;1.87;;;20.60;60.40;;;;;;5015738;28;20483;-91
2023/03/15 11:12:24;;;;;;;3.10;1.87;;;20.70;60.50;;;;;;5015856;28;20486;-91
2023/03/15 11:14:55;;;;;;;2.50;1.87;;;20.80;60.60;;;;;;5016058;28;20513;-92
2023/03/15 11:17:25;;;;;;;3.70;1.93;;;20.80;60.50;;;;;;4996493;28;20498;-91
2023/03/15 11:19:56;;;;;;;3.87;1.60;;;20.80;60.40;;;;;;4996276;28;20458;-91
2023/03/15 11:22:24;;;;;;;2.17;1.77;;;20.90;60.50;;;;;;4996145;28;20593;-91
2023/03/15 11:24:54;;;;;;;10.33;2.30;;;21.00;60.40;;;;;;4996201;28;20509;-91
2023/03/15 11:27:24;;;;;;;2.17;1.73;;;21.10;60.40;;;;;;4996398;28;20498;-91
2023/03/15 11:29:54;;;;;;;2.10;1.50;;;21.20;60.40;;;;;;5008325;28;20935;-92
2023/03/15 11:32:25;;;;;;;1.90;1.50;;;21.20;60.50;;;;;;5015055;28;20475;-93
2023/03/15 11:34:59;;;;;;;2.17;1.70;;;21.20;60.40;;;;;;5015443;28;20443;-89
2023/03/15 11:37:32;;;;;;;2.73;1.67;;;21.30;60.60;;;;;;5015218;28;20438;-96
2023/03/15 11:40:03;;;;;;;2.53;1.67;;;21.30;60.60;;;;;;5014694;28;20443;-90
2023/03/15 11:42:35;;;;;;;7.10;2.23;;;21.30;60.70;;;;;;5013243;28;20498;-90
2023/03/15 11:45:06;;;;;;;1.53;1.43;;;21.30;60.60;;;;;;5014262;28;20538;-89
2023/03/15 11:47:42;;;;;;;3.80;1.73;;;21.40;60.60;;;;;;5013437;28;20545;-90
2023/03/15 11:50:13;;;;;;;5.50;1.60;;;21.40;60.60;;;;;;5013905;28;20458;-89
2023/03/15 11:52:41;;;;;;;4.23;1.40;;;21.50;60.60;;;;;;5014361;28;20856;-89
2023/03/15 11:55:19;;;;;;;3.33;2.07;;;21.50;60.60;;;;;;5013566;28;20470;-90
2023/03/15 11:57:48;;;;;;;5.20;1.50;;;21.50;60.70;;;;;;5013565;28;20945;-89
2023/03/15 12:00:41;;;;;;;4.27;1.90;;;21.50;60.70;;;;;;5013538;28;20447;-89
2023/03/15 12:03:32;;;;;;;2.50;1.70;;;21.60;60.50;;;;;;4993567;28;20998;-89
2023/03/15 12:06:01;;;;;;;2.00;1.50;;;21.60;60.40;;;;;;4994512;28;20460;-90
2023/03/15 12:08:44;;;;;;;3.40;1.60;;;21.60;60.00;;;;;;4993889;28;20545;-89
2023/03/15 12:11:14;;;;;;;3.00;1.20;;;21.60;60.10;;;;;;4994025;28;20540;-90
2023/03/15 12:13:52;;;;;;;1.70;1.50;;;21.60;60.10;;;;;;4993733;28;20454;-90
2023/03/15 12:16:21;;;;;;;3.67;1.40;;;21.60;60.30;;;;;;4994117;28;20438;-89
2023/03/15 12:18:49;;;;;;;3.30;2.00;;;21.70;60.40;;;;;;4993681;28;20510;-90
2023/03/15 12:21:20;;;;;;;2.67;1.67;;;21.60;60.30;;;;;;4994226;28;20448;-89
2023/03/15 12:23:57;;;;;;;2.33;1.70;;;21.70;60.40;;;;;;4993686;28;21142;-95
2023/03/15 12:26:32;;;;;;;5.73;2.93;;;21.70;60.40;;;;;;4994019;28;20494;-89
2023/03/15 12:29:11;;;;;;;10.67;4.70;;;21.80;60.50;;;;;;4993917;28;20491;-89
2023/03/15 12:31:51;;;;;;;22.57;7.10;;;21.90;60.70;;;;;;4993606;28;20436;-93
2023/03/15 12:34:25;;;;;;;15.40;7.30;;;21.90;61.00;;;;;;4993939;28;20811;-89
2023/03/15 12:36:56;;;;;;;18.67;7.73;;;21.90;60.90;;;;;;4993830;28;20450;-88
2023/03/15 12:39:39;;;;;;;25.97;8.63;;;21.90;61.30;;;;;;4994077;28;20445;-89
2023/03/15 12:42:12;;;;;;;22.40;9.60;;;21.90;61.40;;;;;;4993979;28;20825;-89
2023/03/15 12:44:40;;;;;;;32.60;12.47;;;21.80;61.40;;;;;;4995133;28;20444;-89
2023/03/15 12:47:09;;;;;;;28.57;10.83;;;21.80;61.70;;;;;;4993771;28;20456;-88
2023/03/15 12:49:38;;;;;;;31.70;10.90;;;21.80;62.00;;;;;;4994912;28;20448;-95
2023/03/15 12:52:13;;;;;;;31.00;9.77;;;21.70;62.20;;;;;;4998757;28;20431;-95
2023/03/15 12:54:45;;;;;;;22.60;9.47;;;21.70;61.70;;;;;;4999555;28;20435;-89
2023/03/15 12:57:14;;;;;;;18.83;8.77;;;21.60;61.10;;;;;;4999544;28;20475;-96
2023/03/15 12:59:48;;;;;;;24.27;9.37;;;21.60;61.40;;;;;;5000137;28;20466;-89
2023/03/15 13:02:28;;;;;;;23.80;9.10;;;21.70;62.00;;;;;;4998016;28;20466;-89
2023/03/15 13:05:01;;;;;;;33.10;8.23;;;21.70;61.60;;;;;;4997666;28;20798;-89
2023/03/15 13:07:34;;;;;;;16.77;7.50;;;21.70;61.80;;;;;;4999544;28;20449;-93